Time;durP1;ratioP1;P1;durP2;ratioP2;P2;SDS_P1;SDS_P2;PMS_P1;PMS_P2;Temp;Humidity;BMP_temperature;BMP_pressure;BME280_temperature;BME280_humidity;BME280_pressure;Samples;Min_cycle;Max_cycle;Signal;HPM_P1;HPM_P2
2022/03/06 00:00:45;;;;;;;1.73;1.00;;;11.00;99.90;;;;;;5031356;28;20213;-94
2022/03/06 00:03:20;;;;;;;1.53;0.87;;;10.90;99.90;;;;;;5034824;28;20225;-94
2022/03/06 00:05:55;;;;;;;2.17;0.90;;;10.70;99.90;;;;;;5038151;28;20228;-94
2022/03/06 00:08:28;;;;;;;2.27;0.80;;;10.60;99.90;;;;;;5031185;28;20208;-94
2022/03/06 00:10:59;;;;;;;2.33;0.73;;;10.60;99.90;;;;;;5032094;28;20197;-94
2022/03/06 00:13:30;;;;;;;1.73;0.93;;;10.50;99.90;;;;;;5026702;28;20276;-94
2022/03/06 00:16:01;;;;;;;1.53;0.97;;;10.40;99.90;;;;;;5021334;28;20201;-94
2022/03/06 00:18:35;;;;;;;2.17;0.97;;;10.40;99.90;;;;;;5022125;28;20209;-95
2022/03/06 00:21:10;;;;;;;1.50;1.10;;;10.50;99.90;;;;;;5032542;28;20232;-94
2022/03/06 00:23:53;;;;;;;2.53;1.10;;;10.50;99.90;;;;;;5034898;28;20189;-94
2022/03/06 00:26:31;;;;;;;1.37;0.80;;;10.70;99.90;;;;;;5033567;28;20221;-93
2022/03/06 00:29:03;;;;;;;4.67;1.20;;;10.70;99.90;;;;;;5267865;22;20294;-92
2022/03/06 00:31:34;;;;;;;1.87;1.10;;;10.70;99.90;;;;;;5031927;28;20217;-94
2022/03/06 00:34:09;;;;;;;2.10;0.80;;;10.70;99.90;;;;;;5218503;22;20306;-94
2022/03/06 00:36:42;;;;;;;2.50;0.80;;;10.60;99.90;;;;;;5031984;28;20220;-93
2022/03/06 00:39:19;;;;;;;1.10;0.90;;;10.50;99.90;;;;;;5027588;28;20205;-94
2022/03/06 00:41:52;;;;;;;2.37;1.10;;;10.60;99.90;;;;;;5026964;28;20312;-95
2022/03/06 00:44:24;;;;;;;1.67;0.80;;;10.40;99.90;;;;;;5030667;28;20198;-94
2022/03/06 00:46:56;;;;;;;5.17;1.70;;;10.30;99.90;;;;;;5030974;28;20205;-95
2022/03/06 00:49:27;;;;;;;1.87;1.07;;;10.20;99.90;;;;;;5047183;28;20232;-94
2022/03/06 00:52:05;;;;;;;3.17;1.20;;;10.10;99.90;;;;;;5050878;28;20204;-94
2022/03/06 01:02:31;;;;;;;2.00;1.00;;;9.70;99.90;;;;;;5030544;28;20332;-94
2022/03/06 01:05:02;;;;;;;4.27;1.30;;;9.70;99.90;;;;;;5024847;28;20213;-94
2022/03/06 01:07:38;;;;;;;2.97;1.30;;;9.60;99.90;;;;;;5020078;28;20214;-95
2022/03/06 01:10:10;;;;;;;2.97;1.30;;;9.50;99.90;;;;;;5020066;28;20217;-94
2022/03/06 01:12:42;;;;;;;4.37;1.93;;;9.40;99.90;;;;;;5022358;28;20210;-93
2022/03/06 01:15:14;;;;;;;3.17;1.80;;;9.40;99.90;;;;;;5023050;28;20689;-95
2022/03/06 01:17:50;;;;;;;3.00;1.33;;;9.40;99.90;;;;;;5022301;28;20575;-94
2022/03/06 01:20:23;;;;;;;3.33;1.20;;;9.30;99.90;;;;;;5020207;28;20229;-95
2022/03/06 01:22:58;;;;;;;2.13;1.43;;;9.20;99.90;;;;;;5021556;28;20220;-94
2022/03/06 01:25:30;;;;;;;3.70;1.20;;;9.20;99.90;;;;;;5035264;28;20193;-93
2022/03/06 01:28:01;;;;;;;3.40;1.33;;;9.20;99.90;;;;;;5035058;28;20201;-92
2022/03/06 02:05:27;;;;;;;3.67;1.17;;;8.00;99.90;;;;;;5018792;28;20221;-94
2022/03/06 02:07:59;;;;;;;4.30;1.20;;;7.80;99.90;;;;;;5019615;28;20236;-93
2022/03/06 02:10:31;;;;;;;3.27;1.37;;;7.70;99.90;;;;;;5031821;28;20644;-92
2022/03/06 02:13:03;;;;;;;3.67;1.50;;;7.60;99.90;;;;;;5044464;28;20209;-93
2022/03/06 02:15:35;;;;;;;2.37;1.37;;;7.50;99.90;;;;;;5057193;28;20193;-92
2022/03/06 02:18:08;;;;;;;3.43;1.37;;;7.40;99.90;;;;;;5050511;28;20231;-95
2022/03/06 02:20:41;;;;;;;2.63;1.70;;;7.30;99.90;;;;;;5047098;28;20648;-92
2022/03/06 02:23:15;;;;;;;2.33;1.97;;;7.30;99.90;;;;;;5050342;28;20256;-92
2022/03/06 02:25:47;;;;;;;3.63;2.30;;;7.20;99.90;;;;;;5055117;28;20193;-94
2022/03/06 02:28:19;;;;;;;6.30;2.67;;;7.10;99.90;;;;;;5054092;28;20200;-92
2022/03/06 02:30:52;;;;;;;5.17;2.13;;;7.00;99.90;;;;;;5057375;28;20201;-94
2022/03/06 02:33:23;;;;;;;3.03;1.87;;;7.00;99.90;;;;;;5048927;28;20307;-93
2022/03/06 02:35:54;;;;;;;3.53;2.10;;;6.90;99.90;;;;;;5041797;28;20296;-92
2022/03/06 02:38:28;;;;;;;5.53;2.30;;;6.80;99.90;;;;;;5041556;28;20237;-95
2022/03/06 02:40:58;;;;;;;5.80;3.53;;;6.70;99.90;;;;;;5051044;28;20219;-93
2022/03/06 02:43:31;;;;;;;6.90;3.73;;;6.70;99.90;;;;;;5045119;28;20244;-95
2022/03/06 02:46:02;;;;;;;9.03;5.20;;;6.60;99.90;;;;;;5050015;28;20284;-92
2022/03/06 02:48:34;;;;;;;7.80;5.10;;;6.50;99.90;;;;;;5045737;28;20216;-93
2022/03/06 02:51:05;;;;;;;9.63;5.73;;;6.40;99.90;;;;;;5040287;28;20655;-94
2022/03/06 02:53:39;;;;;;;8.57;5.43;;;6.40;99.90;;;;;;5041817;28;20206;-94
2022/03/06 02:56:11;;;;;;;9.13;5.20;;;6.40;99.90;;;;;;5031631;28;20210;-95
2022/03/06 02:58:42;;;;;;;8.63;5.37;;;6.30;99.90;;;;;;5029835;28;20558;-93
2022/03/06 03:01:14;;;;;;;8.17;6.10;;;6.20;99.90;;;;;;5031326;28;20218;-95
2022/03/06 03:03:46;;;;;;;8.23;5.00;;;6.20;99.90;;;;;;5029710;28;20234;-92
2022/03/06 03:06:18;;;;;;;8.00;3.73;;;6.10;99.90;;;;;;5031716;28;20221;-93
2022/03/06 03:08:51;;;;;;;7.30;3.10;;;6.10;99.90;;;;;;5020748;28;20213;-94
2022/03/06 03:11:22;;;;;;;4.23;3.50;;;6.10;99.90;;;;;;5027017;28;20238;-94
2022/03/06 03:13:54;;;;;;;4.80;3.00;;;6.00;99.90;;;;;;5025654;28;20708;-94
2022/03/06 03:16:25;;;;;;;3.30;2.57;;;5.90;99.90;;;;;;5023399;28;20240;-94
2022/03/06 03:18:57;;;;;;;4.20;2.73;;;5.90;99.90;;;;;;5031466;28;20206;-93
2022/03/06 03:21:32;;;;;;;4.57;2.77;;;5.90;99.90;;;;;;5027278;28;20210;-93
2022/03/06 03:24:06;;;;;;;5.17;2.53;;;5.80;99.90;;;;;;5030330;28;20237;-93
2022/03/06 03:26:37;;;;;;;5.23;3.03;;;5.80;99.90;;;;;;5020100;28;20627;-92
2022/03/06 03:29:09;;;;;;;4.13;2.30;;;5.70;99.90;;;;;;5018258;28;20201;-94
2022/03/06 03:31:40;;;;;;;5.30;2.53;;;5.70;99.90;;;;;;5020514;28;20827;-94
2022/03/06 03:34:12;;;;;;;2.20;2.00;;;5.70;99.90;;;;;;5020575;28;20209;-93
2022/03/06 03:36:43;;;;;;;7.83;3.00;;;5.60;99.90;;;;;;5031358;28;20206;-94
2022/03/06 03:39:16;;;;;;;3.50;2.37;;;5.60;99.90;;;;;;5021516;28;20255;-94
2022/03/06 03:41:48;;;;;;;3.63;2.50;;;5.50;99.90;;;;;;5023090;28;20221;-93
2022/03/06 03:44:19;;;;;;;5.70;2.60;;;5.50;99.90;;;;;;5029505;28;20248;-91
2022/03/06 03:46:50;;;;;;;5.37;2.90;;;5.50;99.90;;;;;;5035969;28;20193;-95
2022/03/06 03:49:22;;;;;;;4.87;3.00;;;5.50;99.90;;;;;;5037110;28;20224;-94
2022/03/06 03:51:53;;;;;;;6.00;2.63;;;5.40;99.90;;;;;;5023873;28;20228;-92
2022/03/06 03:54:29;;;;;;;5.40;2.53;;;5.40;99.90;;;;;;5021146;28;20232;-93
2022/03/06 03:57:00;;;;;;;5.83;2.40;;;5.40;99.90;;;;;;5027162;28;20216;-94
2022/03/06 03:59:32;;;;;;;4.43;2.20;;;5.30;99.90;;;;;;5027438;28;20206;-93
2022/03/06 04:02:04;;;;;;;3.13;1.83;;;5.20;99.90;;;;;;5024901;28;20241;-92
2022/03/06 04:04:37;;;;;;;4.27;2.60;;;5.20;99.90;;;;;;5027592;28;20268;-93
2022/03/06 04:07:08;;;;;;;3.67;2.70;;;5.20;99.90;;;;;;5024787;28;20206;-91
2022/03/06 04:09:42;;;;;;;6.93;4.43;;;5.20;99.90;;;;;;5024694;28;20212;-94
2022/03/06 04:12:13;;;;;;;8.87;6.17;;;5.20;99.90;;;;;;5021937;28;20205;-93
2022/03/06 04:14:44;;;;;;;6.77;4.20;;;5.10;99.90;;;;;;5018844;28;20570;-92
2022/03/06 04:17:15;;;;;;;6.20;3.03;;;5.10;99.90;;;;;;5034046;28;20576;-93
2022/03/06 04:19:46;;;;;;;5.57;2.73;;;5.10;99.90;;;;;;5037694;28;20295;-94
2022/03/06 04:22:17;;;;;;;4.80;2.10;;;5.10;99.90;;;;;;5038239;28;20200;-93
2022/03/06 04:24:50;;;;;;;4.53;2.20;;;5.00;99.90;;;;;;5037086;28;20308;-92
2022/03/06 04:27:21;;;;;;;3.57;2.00;;;5.00;99.90;;;;;;5036895;28;20208;-93
2022/03/06 04:29:53;;;;;;;3.53;2.10;;;4.90;99.90;;;;;;5037128;28;20296;-93
2022/03/06 04:32:28;;;;;;;4.90;2.40;;;4.90;99.90;;;;;;5038701;28;20209;-93
2022/03/06 04:34:59;;;;;;;3.70;2.47;;;4.90;99.90;;;;;;5048943;28;20219;-93
2022/03/06 04:37:31;;;;;;;5.50;3.30;;;4.90;99.90;;;;;;5042892;28;20213;-91
2022/03/06 04:40:04;;;;;;;5.70;4.13;;;4.90;99.90;;;;;;5038024;28;20268;-92
2022/03/06 04:42:35;;;;;;;8.47;5.17;;;4.90;99.90;;;;;;5037285;28;20300;-92
2022/03/06 04:45:07;;;;;;;6.77;5.07;;;4.90;99.90;;;;;;5020619;28;20225;-92
2022/03/06 04:47:41;;;;;;;5.27;3.50;;;4.90;99.90;;;;;;5022337;28;20261;-92
2022/03/06 04:50:13;;;;;;;9.83;3.83;;;4.90;99.90;;;;;;5193846;23;21021;-93
2022/03/06 04:52:44;;;;;;;6.10;3.80;;;4.90;99.90;;;;;;5027304;28;20248;-92
2022/03/06 04:55:19;;;;;;;5.30;3.33;;;4.80;99.90;;;;;;5011126;28;20198;-92
2022/03/06 04:57:50;;;;;;;6.67;3.63;;;4.80;99.90;;;;;;5004014;28;20205;-91
2022/03/06 05:00:21;;;;;;;5.73;4.30;;;4.80;99.90;;;;;;5005804;28;20210;-92
2022/03/06 05:02:55;;;;;;;6.37;5.03;;;4.70;99.90;;;;;;5007050;28;20637;-93
2022/03/06 05:05:27;;;;;;;7.30;5.90;;;4.70;99.90;;;;;;5004831;28;20265;-93
2022/03/06 05:07:57;;;;;;;9.33;6.63;;;4.70;99.90;;;;;;5006252;28;20668;-92
2022/03/06 05:10:31;;;;;;;9.03;6.50;;;4.60;99.90;;;;;;5008326;28;20233;-92
2022/03/06 05:13:02;;;;;;;11.40;8.80;;;4.60;99.90;;;;;;5008544;28;20260;-93
2022/03/06 05:15:34;;;;;;;16.57;7.67;;;4.60;99.90;;;;;;5008840;28;20219;-93
2022/03/06 05:18:06;;;;;;;10.30;5.73;;;4.60;99.90;;;;;;5004745;28;20218;-92
2022/03/06 05:20:37;;;;;;;6.87;5.20;;;4.50;99.90;;;;;;5008799;28;20265;-92
2022/03/06 05:23:08;;;;;;;8.37;5.67;;;4.50;99.90;;;;;;5006812;28;20304;-91
2022/03/06 05:25:42;;;;;;;11.73;6.20;;;4.50;99.90;;;;;;5019040;28;20252;-92
2022/03/06 05:28:12;;;;;;;11.53;6.43;;;4.50;99.90;;;;;;5020013;28;20252;-91
2022/03/06 05:30:43;;;;;;;13.60;10.57;;;4.50;99.90;;;;;;5033101;28;20244;-93
2022/03/06 05:33:15;;;;;;;26.27;20.97;;;4.50;99.90;;;;;;5037517;28;20193;-93
2022/03/06 05:35:45;;;;;;;27.90;23.27;;;4.50;99.90;;;;;;5032185;28;20209;-94
2022/03/06 05:38:16;;;;;;;27.20;22.50;;;4.50;99.90;;;;;;5020989;28;20252;-93
2022/03/06 05:40:49;;;;;;;21.20;17.93;;;4.40;99.90;;;;;;5021907;28;20234;-92
2022/03/06 05:43:20;;;;;;;12.03;10.70;;;4.40;99.90;;;;;;5021277;28;20698;-93
2022/03/06 05:45:52;;;;;;;10.63;8.50;;;4.30;99.90;;;;;;5020543;28;20273;-92
2022/03/06 05:48:23;;;;;;;9.60;7.20;;;4.20;99.90;;;;;;5019918;28;20359;-92
2022/03/06 05:50:55;;;;;;;9.63;5.93;;;4.20;99.90;;;;;;5020771;28;20595;-94
2022/03/06 05:53:26;;;;;;;13.57;6.60;;;4.10;99.90;;;;;;5022661;28;20209;-90
2022/03/06 05:56:01;;;;;;;6.27;5.43;;;4.20;99.90;;;;;;5032660;28;20230;-92
2022/03/06 05:58:32;;;;;;;5.30;4.00;;;4.10;99.90;;;;;;5026226;28;20232;-93
2022/03/06 06:01:04;;;;;;;3.90;3.60;;;4.10;99.90;;;;;;5025918;28;20230;-94
2022/03/06 06:03:36;;;;;;;5.17;3.60;;;4.10;99.90;;;;;;5026928;28;20248;-91
2022/03/06 06:06:08;;;;;;;7.50;5.23;;;4.10;99.90;;;;;;5027334;28;20267;-92
2022/03/06 06:08:39;;;;;;;16.43;14.37;;;4.10;99.90;;;;;;5039504;28;20209;-92
2022/03/06 06:11:11;;;;;;;19.50;14.30;;;4.10;99.90;;;;;;5039683;28;20205;-92
2022/03/06 06:13:42;;;;;;;9.20;6.30;;;4.10;99.90;;;;;;5029811;28;20286;-92
2022/03/06 06:16:13;;;;;;;8.07;6.23;;;4.00;99.90;;;;;;5021346;28;20233;-92
2022/03/06 06:18:44;;;;;;;5.50;3.97;;;3.90;99.90;;;;;;5033769;28;20249;-93
2022/03/06 06:21:16;;;;;;;4.90;3.20;;;3.80;99.90;;;;;;5019826;28;20268;-94
2022/03/06 06:23:47;;;;;;;4.77;3.53;;;3.80;99.90;;;;;;5019432;28;20209;-92
2022/03/06 06:26:23;;;;;;;8.53;4.50;;;3.80;99.90;;;;;;5019252;28;20238;-93
2022/03/06 06:28:56;;;;;;;3.90;3.07;;;3.70;99.90;;;;;;5018729;28;20244;-93
2022/03/06 06:31:27;;;;;;;5.17;3.30;;;3.70;99.90;;;;;;5019503;28;20271;-92
2022/03/06 06:33:59;;;;;;;6.70;4.60;;;3.70;99.90;;;;;;5019260;28;20292;-94
2022/03/06 06:36:30;;;;;;;6.97;4.20;;;3.70;99.90;;;;;;5018988;28;20209;-93
2022/03/06 06:39:00;;;;;;;5.03;2.90;;;3.70;99.90;;;;;;5018629;28;20540;-92
2022/03/06 06:41:34;;;;;;;5.57;2.80;;;3.70;99.90;;;;;;5019302;28;20230;-92
2022/03/06 06:44:05;;;;;;;3.93;2.53;;;3.70;99.90;;;;;;5021600;28;20210;-94
2022/03/06 06:46:37;;;;;;;3.63;2.60;;;3.70;99.90;;;;;;5020005;28;20324;-93
2022/03/06 06:49:10;;;;;;;5.17;2.70;;;3.70;99.90;;;;;;5031596;28;20218;-94
2022/03/06 06:51:41;;;;;;;8.03;3.47;;;3.70;99.90;;;;;;5030752;28;20210;-93
2022/03/06 06:54:13;;;;;;;5.47;2.93;;;3.70;99.90;;;;;;5022995;28;20244;-94
2022/03/06 06:56:46;;;;;;;5.80;2.87;;;3.70;99.90;;;;;;5018982;28;20209;-94
2022/03/06 06:59:17;;;;;;;5.47;2.63;;;3.60;99.90;;;;;;5017839;28;20612;-94
2022/03/06 07:01:48;;;;;;;3.43;2.13;;;3.60;99.90;;;;;;5018759;28;20215;-93
2022/03/06 07:04:20;;;;;;;4.10;2.50;;;3.50;99.90;;;;;;5028815;28;20271;-91
2022/03/06 07:06:51;;;;;;;5.10;3.00;;;3.50;99.90;;;;;;5028283;28;20233;-92
2022/03/06 07:09:22;;;;;;;6.37;3.80;;;3.50;99.90;;;;;;5021559;28;20240;-92
2022/03/06 07:11:55;;;;;;;8.17;4.60;;;3.50;99.90;;;;;;5019805;28;20210;-92
2022/03/06 07:14:26;;;;;;;6.40;3.40;;;3.50;99.90;;;;;;5021821;28;20229;-93
2022/03/06 07:16:57;;;;;;;6.70;3.07;;;3.40;99.90;;;;;;5017964;28;20719;-93
2022/03/06 07:19:28;;;;;;;7.30;3.60;;;3.40;99.90;;;;;;5016846;28;20245;-92
2022/03/06 07:21:59;;;;;;;5.33;2.60;;;3.40;99.90;;;;;;5018320;28;20293;-92
2022/03/06 07:24:30;;;;;;;4.27;2.30;;;3.40;99.90;;;;;;5018308;28;20297;-91
2022/03/06 07:27:04;;;;;;;4.23;2.60;;;3.40;99.90;;;;;;5017694;28;20236;-94
2022/03/06 07:29:35;;;;;;;6.13;2.27;;;3.40;99.90;;;;;;5018222;28;20612;-93
2022/03/06 07:32:07;;;;;;;5.83;2.40;;;3.30;99.90;;;;;;5019109;28;20209;-91
2022/03/06 07:34:38;;;;;;;5.00;2.50;;;3.30;99.90;;;;;;5020939;28;20284;-92
2022/03/06 07:37:09;;;;;;;4.10;2.47;;;3.30;99.90;;;;;;5017466;28;20237;-93
2022/03/06 07:39:40;;;;;;;5.43;2.77;;;3.20;99.90;;;;;;5019248;28;20217;-91
2022/03/06 07:42:14;;;;;;;4.03;2.67;;;3.20;99.90;;;;;;5020011;28;20293;-93
2022/03/06 07:44:45;;;;;;;3.77;2.73;;;3.20;99.90;;;;;;5021458;28;20263;-93
2022/03/06 07:47:16;;;;;;;4.80;2.60;;;3.10;99.90;;;;;;5030984;28;20264;-93
2022/03/06 07:49:47;;;;;;;6.00;2.70;;;3.10;99.90;;;;;;5036199;28;20232;-90
2022/03/06 07:52:19;;;;;;;5.03;2.80;;;3.10;99.90;;;;;;5036076;28;20221;-93
2022/03/06 07:54:50;;;;;;;4.70;3.00;;;3.10;99.90;;;;;;5024269;28;20237;-94
2022/03/06 07:57:22;;;;;;;7.53;2.70;;;3.10;99.90;;;;;;5019952;28;20256;-91
2022/03/06 07:59:55;;;;;;;4.50;2.60;;;3.10;99.90;;;;;;5018156;28;20618;-91
2022/03/06 08:02:26;;;;;;;4.30;2.70;;;3.00;99.90;;;;;;5026647;28;20229;-92
2022/03/06 08:04:58;;;;;;;4.13;3.20;;;3.00;99.90;;;;;;5016859;28;20288;-92
2022/03/06 08:07:29;;;;;;;5.30;3.10;;;3.00;99.90;;;;;;5015695;28;20256;-93
2022/03/06 08:10:00;;;;;;;5.50;3.77;;;3.00;99.90;;;;;;5020323;28;20743;-94
2022/03/06 08:12:32;;;;;;;3.87;2.93;;;2.90;99.90;;;;;;5035766;28;20209;-93
2022/03/06 08:15:03;;;;;;;4.53;3.00;;;2.90;99.90;;;;;;5036591;28;20292;-93
2022/03/06 08:17:34;;;;;;;5.73;3.13;;;2.80;99.90;;;;;;5036347;28;20250;-93
2022/03/06 08:20:06;;;;;;;4.63;3.17;;;2.80;99.90;;;;;;5036902;28;20224;-91
2022/03/06 08:22:40;;;;;;;3.93;3.10;;;2.80;99.90;;;;;;5050516;28;20208;-93
2022/03/06 08:25:12;;;;;;;6.43;3.43;;;2.80;99.90;;;;;;5057200;28;20185;-92
2022/03/06 08:27:45;;;;;;;4.30;3.10;;;2.80;99.90;;;;;;5056249;28;20224;-91
2022/03/06 08:30:16;;;;;;;4.87;2.90;;;2.80;99.90;;;;;;5041554;28;20205;-93
2022/03/06 08:32:48;;;;;;;4.83;2.60;;;2.80;99.90;;;;;;5044598;28;20215;-92
2022/03/06 08:35:19;;;;;;;4.47;2.87;;;2.80;99.90;;;;;;5041204;28;20217;-94
2022/03/06 08:37:51;;;;;;;4.00;3.17;;;2.70;99.90;;;;;;5040876;28;20205;-94
2022/03/06 08:40:22;;;;;;;5.03;3.80;;;2.70;99.90;;;;;;5037673;28;20287;-94
2022/03/06 08:42:56;;;;;;;5.80;3.70;;;2.70;99.90;;;;;;5036719;28;20287;-93
2022/03/06 08:45:27;;;;;;;8.07;5.60;;;2.60;99.90;;;;;;5037250;28;20209;-93
2022/03/06 08:47:58;;;;;;;9.27;5.63;;;2.60;99.90;;;;;;5036616;28;20300;-92
2022/03/06 08:50:29;;;;;;;9.43;5.73;;;2.60;99.90;;;;;;5037665;28;20307;-94
2022/03/06 08:53:00;;;;;;;6.13;5.53;;;2.70;99.90;;;;;;5034254;28;20232;-94
2022/03/06 08:55:32;;;;;;;7.13;5.40;;;2.60;99.90;;;;;;5021189;28;20218;-93
2022/03/06 08:58:04;;;;;;;7.97;4.40;;;2.60;99.90;;;;;;5016682;28;20214;-94
2022/03/06 09:00:36;;;;;;;6.90;4.73;;;2.60;99.90;;;;;;5017813;28;20244;-93
2022/03/06 09:03:07;;;;;;;5.53;4.83;;;2.60;99.90;;;;;;5015989;28;20289;-93
2022/03/06 09:05:40;;;;;;;7.00;5.07;;;2.70;99.90;;;;;;5018022;28;20201;-93
2022/03/06 09:08:11;;;;;;;8.83;4.87;;;2.60;99.90;;;;;;5015291;28;20288;-92
2022/03/06 09:10:43;;;;;;;10.80;5.07;;;2.60;99.90;;;;;;5015750;28;20632;-92
2022/03/06 09:13:17;;;;;;;6.67;4.57;;;2.60;99.90;;;;;;5018322;28;20232;-93
2022/03/06 09:15:48;;;;;;;3.93;3.30;;;2.60;99.90;;;;;;5019795;28;20619;-93
2022/03/06 09:18:19;;;;;;;5.67;3.70;;;2.50;99.90;;;;;;5027285;28;20241;-93
2022/03/06 09:20:51;;;;;;;5.27;3.80;;;2.50;99.90;;;;;;5021947;28;20237;-94
2022/03/06 09:23:22;;;;;;;8.63;4.10;;;2.50;99.90;;;;;;5014979;28;20232;-93
2022/03/06 09:25:53;;;;;;;5.77;3.83;;;2.50;99.90;;;;;;5023485;28;20572;-94
2022/03/06 09:28:26;;;;;;;8.70;4.80;;;2.40;99.90;;;;;;5015071;28;20234;-93
2022/03/06 09:30:57;;;;;;;12.70;7.87;;;2.30;99.90;;;;;;5015347;28;20672;-93
2022/03/06 09:33:29;;;;;;;14.43;9.60;;;2.30;99.90;;;;;;5016074;28;20272;-93
2022/03/06 09:36:01;;;;;;;16.67;10.97;;;2.30;99.90;;;;;;5016368;28;20284;-92
2022/03/06 09:38:33;;;;;;;13.53;9.50;;;2.30;99.90;;;;;;5019420;28;20290;-93
2022/03/06 09:41:06;;;;;;;13.67;9.67;;;2.30;99.90;;;;;;5017231;28;20237;-92
2022/03/06 09:43:39;;;;;;;11.07;8.13;;;2.30;99.90;;;;;;5017269;28;20269;-94
2022/03/06 09:46:11;;;;;;;13.43;8.87;;;2.30;99.90;;;;;;5015145;28;20205;-94
2022/03/06 09:48:42;;;;;;;13.50;10.00;;;2.30;99.90;;;;;;5013647;28;20214;-94
2022/03/06 09:51:14;;;;;;;13.70;7.83;;;2.30;99.90;;;;;;5015183;28;20209;-95
2022/03/06 09:53:45;;;;;;;11.17;7.20;;;2.30;99.90;;;;;;5014172;28;20646;-94
2022/03/06 09:56:16;;;;;;;9.27;6.43;;;2.30;99.90;;;;;;5014881;28;20213;-94
2022/03/06 09:58:50;;;;;;;11.00;5.93;;;2.30;99.90;;;;;;5013805;28;20233;-93
2022/03/06 10:01:22;;;;;;;7.67;5.47;;;2.20;99.90;;;;;;5015299;28;20288;-93
2022/03/06 10:03:53;;;;;;;7.67;5.10;;;2.20;99.90;;;;;;5015199;28;20229;-92
2022/03/06 10:06:25;;;;;;;7.47;5.40;;;2.00;99.90;;;;;;5015571;28;20206;-92
2022/03/06 10:09:06;;;;;;;7.57;5.00;;;2.00;99.90;;;;;;5015144;28;20237;-94
2022/03/06 10:11:40;;;;;;;7.60;5.07;;;2.00;99.90;;;;;;5015474;28;20237;-92
2022/03/06 10:14:13;;;;;;;7.03;3.80;;;2.00;99.90;;;;;;5014863;28;20297;-94
2022/03/06 10:16:45;;;;;;;6.63;4.33;;;2.00;99.90;;;;;;5019011;28;20560;-94
2022/03/06 10:19:16;;;;;;;5.07;3.43;;;2.00;99.90;;;;;;5018084;28;20249;-94
2022/03/06 10:21:48;;;;;;;7.87;4.73;;;2.00;99.90;;;;;;5018681;28;20734;-92
2022/03/06 10:24:20;;;;;;;5.67;4.17;;;1.90;99.90;;;;;;5020515;28;20327;-93
2022/03/06 10:26:51;;;;;;;7.87;4.40;;;1.90;99.90;;;;;;5018992;28;20285;-94
2022/03/06 10:29:27;;;;;;;6.53;4.87;;;1.90;99.90;;;;;;5022054;28;20855;-93
2022/03/06 10:32:00;;;;;;;4.83;4.10;;;1.90;99.90;;;;;;5019665;28;20202;-93
2022/03/06 10:34:38;;;;;;;5.23;4.00;;;1.90;99.90;;;;;;5024214;28;20201;-93
2022/03/06 10:37:15;;;;;;;5.33;4.20;;;2.00;99.90;;;;;;5023232;28;20213;-93
2022/03/06 10:39:48;;;;;;;7.80;3.93;;;2.00;99.90;;;;;;5039212;28;20189;-93
2022/03/06 10:42:24;;;;;;;9.53;4.03;;;2.00;99.90;;;;;;5039546;28;20189;-93
2022/03/06 10:44:58;;;;;;;5.73;4.40;;;2.00;99.90;;;;;;5031106;28;20229;-94
2022/03/06 10:47:29;;;;;;;6.87;4.03;;;1.90;99.90;;;;;;5024365;28;20233;-93
2022/03/06 10:50:04;;;;;;;6.37;4.27;;;2.00;99.90;;;;;;5018706;28;20233;-94
2022/03/06 10:52:42;;;;;;;7.97;4.30;;;2.00;99.90;;;;;;5018496;28;20209;-94
2022/03/06 10:55:14;;;;;;;7.77;4.10;;;2.00;99.90;;;;;;5018816;28;20213;-93
2022/03/06 10:57:57;;;;;;;7.17;4.50;;;1.90;99.90;;;;;;5025138;28;20225;-93
2022/03/06 11:00:32;;;;;;;8.37;4.63;;;1.80;99.90;;;;;;5039338;28;20224;-93
2022/03/06 11:03:07;;;;;;;6.80;3.83;;;1.80;99.90;;;;;;5039357;28;20204;-94
2022/03/06 11:05:40;;;;;;;5.10;4.07;;;1.80;99.90;;;;;;5039514;28;20258;-94
2022/03/06 11:08:14;;;;;;;6.70;4.07;;;1.80;99.90;;;;;;5037972;28;20233;-93
2022/03/06 11:10:46;;;;;;;6.73;4.20;;;1.80;99.90;;;;;;5039378;28;20194;-94
2022/03/06 11:13:17;;;;;;;5.77;4.30;;;1.70;99.90;;;;;;5039378;28;20190;-93
2022/03/06 11:15:51;;;;;;;6.47;4.40;;;1.70;99.90;;;;;;5039173;28;20239;-94
2022/03/06 11:18:22;;;;;;;5.20;3.97;;;1.70;99.90;;;;;;5038493;28;20206;-94
2022/03/06 11:20:55;;;;;;;4.80;4.10;;;1.70;99.90;;;;;;5038747;28;20220;-95
2022/03/06 11:23:35;;;;;;;5.53;3.40;;;1.70;99.90;;;;;;5034988;28;20198;-94
2022/03/06 11:26:41;;;;;;;4.67;3.50;;;1.70;99.90;;;;;;5032580;28;20201;-93
2022/03/06 11:29:41;;;;;;;4.80;3.90;;;1.60;99.90;;;;;;5014757;28;20233;-94
2022/03/06 11:32:14;;;;;;;7.27;3.87;;;1.60;99.90;;;;;;5033441;28;20206;-93
2022/03/06 11:34:46;;;;;;;6.10;4.03;;;1.50;99.90;;;;;;5032004;28;20205;-93
2022/03/06 11:37:17;;;;;;;5.03;3.30;;;1.50;99.90;;;;;;5032710;28;20201;-95
2022/03/06 11:39:50;;;;;;;6.67;3.30;;;1.50;99.90;;;;;;5033133;28;20206;-94
2022/03/06 11:42:56;;;;;;;5.97;4.13;;;1.40;99.90;;;;;;5033591;28;20202;-94
2022/03/06 11:45:55;;;;;;;7.47;3.40;;;1.50;99.90;;;;;;5033859;28;20220;-92
2022/03/06 11:48:51;;;;;;;4.87;3.47;;;1.50;99.90;;;;;;5010264;28;20240;-94
2022/03/06 11:51:31;;;;;;;3.77;3.10;;;1.50;99.90;;;;;;5003391;28;20300;-95
2022/03/06 11:54:05;;;;;;;5.60;3.10;;;1.50;99.90;;;;;;5012438;28;20209;-95
2022/03/06 11:56:59;;;;;;;5.47;2.90;;;1.50;99.90;;;;;;5022844;28;20246;-93
2022/03/06 11:59:44;;;;;;;8.07;3.03;;;1.40;99.90;;;;;;5020846;28;20223;-93
2022/03/06 12:02:20;;;;;;;4.63;3.20;;;1.40;99.90;;;;;;5021642;28;20213;-94
2022/03/06 12:04:58;;;;;;;4.73;3.40;;;1.30;99.90;;;;;;5024240;28;20277;-94
2022/03/06 12:07:31;;;;;;;6.83;3.43;;;1.30;99.90;;;;;;5019429;28;20656;-94
2022/03/06 12:10:10;;;;;;;3.03;2.70;;;1.30;99.90;;;;;;5022775;28;20323;-93
2022/03/06 12:12:42;;;;;;;4.07;3.13;;;1.30;99.90;;;;;;5028309;28;20229;-94
2022/03/06 12:15:18;;;;;;;6.33;3.03;;;1.30;99.90;;;;;;5026044;28;20206;-93
2022/03/06 12:17:49;;;;;;;3.77;2.63;;;1.30;99.90;;;;;;5024460;28;20205;-95
2022/03/06 12:20:30;;;;;;;4.03;3.27;;;1.30;99.90;;;;;;5038543;28;20212;-94
2022/03/06 12:23:14;;;;;;;4.70;3.23;;;1.30;99.90;;;;;;5038601;28;20200;-92
2022/03/06 12:25:53;;;;;;;5.50;3.27;;;1.30;99.90;;;;;;5037430;28;20291;-94
2022/03/06 12:28:38;;;;;;;5.07;3.43;;;1.40;99.90;;;;;;5037193;28;20262;-93
2022/03/06 12:31:37;;;;;;;3.57;2.93;;;1.40;99.90;;;;;;5037480;28;20264;-94
2022/03/06 12:34:39;;;;;;;3.47;2.80;;;1.50;99.90;;;;;;5041900;28;20205;-95
2022/03/06 12:37:15;;;;;;;3.07;2.60;;;1.50;99.90;;;;;;5037400;28;20208;-94
2022/03/06 12:39:47;;;;;;;4.17;3.00;;;1.40;99.90;;;;;;5037673;28;20238;-93
2022/03/06 12:42:25;;;;;;;5.10;3.00;;;1.30;99.90;;;;;;5038811;28;20263;-94
2022/03/06 12:44:58;;;;;;;3.70;2.53;;;1.30;99.90;;;;;;5037460;28;20236;-94
2022/03/06 12:47:29;;;;;;;4.73;2.97;;;1.30;99.90;;;;;;5036960;28;20251;-95
2022/03/06 12:50:01;;;;;;;6.27;3.90;;;1.20;99.90;;;;;;5037410;28;20273;-95
2022/03/06 12:52:34;;;;;;;5.50;3.23;;;1.30;99.90;;;;;;5033660;28;20250;-93
2022/03/06 12:55:14;;;;;;;5.53;3.30;;;1.20;99.90;;;;;;5018228;28;20488;-93
2022/03/06 12:57:48;;;;;;;5.10;3.20;;;1.20;99.90;;;;;;5018469;28;20237;-93
2022/03/06 13:00:22;;;;;;;7.77;3.60;;;1.20;99.90;;;;;;5021011;28;20264;-94
2022/03/06 13:02:56;;;;;;;5.50;3.20;;;1.20;99.90;;;;;;5026292;28;20214;-93
2022/03/06 13:05:29;;;;;;;4.17;3.33;;;1.20;99.90;;;;;;5029175;28;20220;-94
2022/03/06 13:08:05;;;;;;;3.37;2.60;;;1.20;99.90;;;;;;5031716;28;20201;-94
2022/03/06 13:10:37;;;;;;;4.77;3.10;;;1.10;99.90;;;;;;5024479;28;20209;-93
2022/03/06 13:13:09;;;;;;;4.70;3.27;;;1.10;99.90;;;;;;5023366;28;20620;-94
2022/03/06 13:15:41;;;;;;;5.83;3.67;;;1.10;99.90;;;;;;5022194;28;20202;-93
2022/03/06 13:18:12;;;;;;;5.43;3.10;;;1.10;99.90;;;;;;5033338;28;20217;-93
2022/03/06 13:20:44;;;;;;;5.00;3.00;;;1.10;99.90;;;;;;5024267;28;20264;-93
2022/03/06 13:23:23;;;;;;;4.27;3.07;;;1.10;99.90;;;;;;5020364;28;20206;-94
2022/03/06 13:25:54;;;;;;;5.60;2.57;;;1.00;99.90;;;;;;5013287;28;20554;-94
2022/03/06 13:28:25;;;;;;;3.83;3.20;;;1.10;99.90;;;;;;5008122;28;20242;-94
2022/03/06 13:31:02;;;;;;;4.43;3.20;;;1.00;99.90;;;;;;5000236;28;20247;-93
2022/03/06 13:33:34;;;;;;;3.23;2.57;;;1.00;99.90;;;;;;5001356;28;20210;-93
2022/03/06 13:36:15;;;;;;;4.23;2.53;;;1.00;99.90;;;;;;4999102;28;20250;-94
2022/03/06 13:39:00;;;;;;;5.00;2.57;;;1.00;99.90;;;;;;5000880;28;20228;-94
2022/03/06 13:41:31;;;;;;;3.87;3.10;;;1.00;99.90;;;;;;4997128;28;20338;-93
2022/03/06 13:44:05;;;;;;;7.00;3.33;;;0.90;99.90;;;;;;4995300;28;20210;-93
2022/03/06 13:46:41;;;;;;;3.90;3.10;;;0.90;99.90;;;;;;4999280;28;20678;-95
2022/03/06 13:52:08;;;;;;;3.53;2.87;;;0.80;99.90;;;;;;5024298;28;20209;-95
2022/03/06 13:54:41;;;;;;;7.17;3.20;;;0.70;99.90;;;;;;5025127;28;20206;-94
2022/03/06 13:57:14;;;;;;;6.70;3.37;;;0.70;99.90;;;;;;5020030;28;20208;-93
2022/03/06 13:59:46;;;;;;;4.03;3.10;;;0.70;99.90;;;;;;5020840;28;20209;-93
2022/03/06 14:02:24;;;;;;;5.23;3.20;;;0.70;99.90;;;;;;5021761;28;20213;-95
2022/03/06 14:04:56;;;;;;;5.67;3.67;;;0.70;99.90;;;;;;5019697;28;20209;-93
2022/03/06 14:07:27;;;;;;;9.17;4.00;;;0.80;99.90;;;;;;5018709;28;20259;-94
2022/03/06 14:10:01;;;;;;;5.67;4.27;;;0.90;99.90;;;;;;5019133;28;20249;-94
2022/03/06 14:12:35;;;;;;;4.53;3.57;;;1.00;99.90;;;;;;5019802;28;20248;-93